createdAt,value
2022-09-06T00:01:43.827Z,100812.13
2022-09-06T00:04:15.212Z,100799.28
2022-09-06T00:06:43.301Z,100792.13
2022-09-06T00:09:11.064Z,100794.00
2022-09-06T00:11:39.156Z,100789.38
2022-09-06T00:14:06.818Z,100778.63
2022-09-06T00:16:34.853Z,100784.97
2022-09-06T00:22:12.122Z,100785.31
2022-09-06T00:24:39.897Z,100789.97
2022-09-06T00:27:07.830Z,100790.81
2022-09-06T00:29:35.772Z,100795.03
2022-09-06T00:32:03.867Z,100788.06
2022-09-06T00:34:31.698Z,100796.09
2022-09-06T00:36:59.469Z,100801.38
2022-09-06T00:39:27.262Z,100802.63
2022-09-06T00:41:55.025Z,100814.59
2022-09-06T00:44:22.763Z,100808.09
2022-09-06T00:46:50.658Z,100809.13
2022-09-06T00:49:24.504Z,100800.06
2022-09-06T00:51:52.465Z,100804.47
2022-09-06T00:54:20.189Z,100806.38
2022-09-06T00:56:48.229Z,100807.44
2022-09-06T00:59:15.946Z,100812.25
2022-09-06T01:01:43.974Z,100818.38
2022-09-06T01:04:12.103Z,100805.72
2022-09-06T01:06:39.891Z,100806.38
2022-09-06T01:09:07.793Z,100804.69
2022-09-06T01:11:35.528Z,100801.97
2022-09-06T01:14:03.447Z,100807.44
2022-09-06T01:16:31.198Z,100814.81
2022-09-06T01:18:58.983Z,100810.16
2022-09-06T01:21:27.031Z,100814.81
2022-09-06T01:23:54.870Z,100809.31
2022-09-06T01:26:22.572Z,100814.81
2022-09-06T01:28:50.747Z,100809.50
2022-09-06T01:31:18.741Z,100804.22
2022-09-06T01:33:46.718Z,100803.84
2022-09-06T01:36:14.449Z,100800.25
2022-09-06T01:38:42.284Z,100794.97
2022-09-06T01:41:10.287Z,100793.09
2022-09-06T01:43:38.053Z,100800.25
2022-09-06T01:46:05.990Z,100794.78
2022-09-06T01:48:33.835Z,100788.66
2022-09-06T01:51:01.691Z,100790.34
2022-09-06T01:53:29.462Z,100793.75
2022-09-06T01:55:57.166Z,100788.47
2022-09-06T01:58:25.190Z,100789.50
2022-09-06T02:00:53.204Z,100786.56
2022-09-06T02:03:20.976Z,100777.50
2022-09-06T02:05:48.886Z,100780.47
2022-09-06T02:08:16.871Z,100789.69
2022-09-06T02:10:44.775Z,100782.31
2022-09-06T02:13:12.535Z,100779.41
2022-09-06T02:15:40.512Z,100782.16
2022-09-06T02:18:08.513Z,100785.72
2022-09-06T02:20:36.240Z,100788.47
2022-09-06T02:23:04.211Z,100789.50
2022-09-06T02:25:31.948Z,100802.34
2022-09-06T02:27:59.954Z,100804.22
2022-09-06T02:30:27.964Z,100788.00
2022-09-06T02:32:55.803Z,100785.28
2022-09-06T02:35:23.608Z,100786.94
2022-09-06T02:37:52.052Z,100787.78
2022-09-06T02:40:19.728Z,100795.81
2022-09-06T02:42:47.451Z,100793.09
2022-09-06T02:45:15.288Z,100804.03
2022-09-06T02:47:43.147Z,100797.91
2022-09-06T02:50:10.865Z,100800.00
2022-09-06T02:52:38.973Z,100807.34
2022-09-06T02:55:06.792Z,100808.22
2022-09-06T02:57:34.599Z,100813.47
2022-09-06T03:00:02.508Z,100811.56
2022-09-06T03:02:30.244Z,100808.84
2022-09-06T03:04:58.062Z,100800.84
2022-09-06T03:07:26.024Z,100809.69
2022-09-06T03:09:53.748Z,100799.63
2022-09-06T03:12:21.651Z,100799.63
2022-09-06T03:14:54.283Z,100803.38
2022-09-06T03:17:22.759Z,100800.63
2022-09-06T03:19:50.765Z,100800.84
2022-09-06T03:22:18.716Z,100800.63
2022-09-06T03:24:46.722Z,100800.63
2022-09-06T03:27:14.463Z,100803.38
2022-09-06T03:29:42.350Z,100796.22
2022-09-06T03:32:10.311Z,100796.22
2022-09-06T03:34:38.172Z,100793.66
2022-09-06T03:37:06.059Z,100781.88
2022-09-06T03:39:33.977Z,100774.50
2022-09-06T03:42:03.175Z,100761.69
2022-09-06T03:44:30.914Z,100770.75
2022-09-06T03:46:58.757Z,100765.06
2022-09-06T03:49:26.510Z,100760.00
2022-09-06T03:51:54.201Z,100751.78
2022-09-06T03:54:21.996Z,100739.81
2022-09-06T03:56:49.730Z,100734.34
2022-09-06T03:59:18.926Z,100738.94
2022-09-06T04:01:46.662Z,100737.44
2022-09-06T04:04:14.335Z,100736.59
2022-09-06T04:06:42.045Z,100731.78
2022-09-06T04:09:09.811Z,100728.66
2022-09-06T04:11:37.572Z,100731.78
2022-09-06T04:14:05.303Z,100730.09
2022-09-06T04:16:33.313Z,100725.47
2022-09-06T04:19:02.698Z,100720.19
2022-09-06T04:21:30.503Z,100718.94
2022-09-06T04:23:58.244Z,100721.69
2022-09-06T04:26:26.155Z,100713.69
2022-09-06T04:28:53.927Z,100712.63
2022-09-06T04:31:21.685Z,100716.22
2022-09-06T04:33:49.434Z,100714.53
2022-09-06T04:36:17.292Z,100716.22
2022-09-06T04:38:45.054Z,100714.97
2022-09-06T04:41:12.944Z,100716.66
2022-09-06T04:43:40.647Z,100713.91
2022-09-06T04:46:08.600Z,100714.78
2022-09-06T04:48:36.811Z,100716.28
2022-09-06T04:51:04.511Z,100721.16
2022-09-06T04:53:32.251Z,100729.75
2022-09-06T04:56:00.816Z,100726.38
2022-09-06T04:58:28.667Z,100719.22
2022-09-06T05:00:56.663Z,100727.81
2022-09-06T05:03:24.472Z,100726.75
2022-09-06T05:05:52.185Z,100735.19
2022-09-06T05:08:20.097Z,100727.16
2022-09-06T05:10:47.804Z,100732.22
2022-09-06T05:13:15.494Z,100731.41
2022-09-06T05:15:43.169Z,100736.03
2022-09-06T05:18:14.149Z,100750.75
2022-09-06T05:20:43.809Z,100754.13
2022-09-06T05:23:11.570Z,100751.38
2022-09-06T05:25:39.249Z,100754.13
2022-09-06T05:28:06.917Z,100758.75
2022-09-06T05:30:34.585Z,100745.06
2022-09-06T05:33:02.288Z,100745.28
2022-09-06T05:35:30.237Z,100750.75
2022-09-06T05:37:57.976Z,100738.94
2022-09-06T05:40:25.855Z,100737.06
2022-09-06T05:42:53.558Z,100729.06
2022-09-06T05:45:21.426Z,100730.94
2022-09-06T05:47:50.197Z,100723.41
2022-09-06T05:50:18.040Z,100717.25
2022-09-06T05:52:45.770Z,100723.59
2022-09-06T05:55:13.451Z,100721.69
2022-09-06T05:57:41.137Z,100720.00
2022-09-06T06:00:11.822Z,100721.03
2022-09-06T06:02:39.977Z,100724.41
2022-09-06T06:05:08.020Z,100717.06
2022-09-06T06:07:36.463Z,100718.75
2022-09-06T06:10:04.550Z,100718.75
2022-09-06T06:12:32.257Z,100716.44
2022-09-06T06:14:59.930Z,100713.88
2022-09-06T06:17:27.710Z,100723.75
2022-09-06T06:19:55.845Z,100727.56
2022-09-06T06:22:23.493Z,100736.41
2022-09-06T06:24:51.200Z,100739.34
2022-09-06T06:27:18.928Z,100739.16
2022-09-06T06:29:46.636Z,100736.41
2022-09-06T06:32:14.314Z,100726.72
2022-09-06T06:34:41.984Z,100729.22
2022-09-06T06:37:14.020Z,100733.03
2022-09-06T06:39:41.984Z,100728.41
2022-09-06T06:42:10.331Z,100733.03
2022-09-06T06:44:48.774Z,100727.38
2022-09-06T06:47:16.529Z,100732.19
2022-09-06T06:49:44.240Z,100729.06
2022-09-06T06:52:11.963Z,100730.09
2022-09-06T06:54:39.927Z,100731.22
2022-09-06T06:57:09.501Z,100728.88
2022-09-06T06:59:37.167Z,100725.47
2022-09-06T07:02:05.990Z,100731.59
2022-09-06T07:04:33.734Z,100729.72
2022-09-06T07:12:36.906Z,100722.34
2022-09-06T07:15:04.571Z,100723.41
2022-09-06T07:17:32.271Z,100739.41
2022-09-06T07:20:15.888Z,100735.63
2022-09-06T07:22:44.012Z,100736.03
2022-09-06T07:25:14.380Z,100737.72
2022-09-06T07:30:14.286Z,100744.88
2022-09-06T07:32:42.143Z,100744.88
2022-09-06T07:35:09.782Z,100741.09
2022-09-06T07:37:37.507Z,100741.09
2022-09-06T07:40:05.260Z,100732.22
2022-09-06T07:42:36.199Z,100725.53
2022-09-06T07:45:04.355Z,100731.00
2022-09-06T07:53:09.441Z,100739.41
2022-09-06T07:55:40.616Z,100739.41
2022-09-06T07:58:08.360Z,100745.53
2022-09-06T08:00:36.124Z,100745.16
2022-09-06T08:03:03.890Z,100744.09
2022-09-06T08:11:07.609Z,100738.81
2022-09-06T08:13:35.379Z,100743.66
2022-09-06T08:16:03.085Z,100746.19
2022-09-06T08:18:30.821Z,100740.72
2022-09-06T08:20:59.884Z,100742.22
2022-09-06T08:23:27.752Z,100734.84
2022-09-06T08:25:55.519Z,100732.97
2022-09-06T08:28:26.798Z,100747.50
2022-09-06T08:30:56.369Z,100746.66
2022-09-06T08:33:25.726Z,100744.75
2022-09-06T08:35:53.539Z,100734.66
2022-09-06T08:38:21.253Z,100731.72
2022-09-06T08:40:48.994Z,100730.69
2022-09-06T08:43:16.708Z,100732.75
2022-09-06T08:45:45.249Z,100728.13
2022-09-06T08:48:13.403Z,100724.53
2022-09-06T08:50:41.074Z,100721.63
2022-09-06T08:53:17.550Z,100715.94
2022-09-06T08:55:45.971Z,100715.94
2022-09-06T08:58:13.997Z,100712.19
2022-09-06T09:00:42.159Z,100713.22
2022-09-06T09:03:14.533Z,100718.69
2022-09-06T09:05:44.280Z,100724.16
2022-09-06T09:08:12.006Z,100711.34
2022-09-06T09:10:39.692Z,100712.56
2022-09-06T09:13:07.526Z,100708.78
2022-09-06T09:15:39.663Z,100699.53
2022-09-06T09:18:08.233Z,100692.38
2022-09-06T09:20:35.955Z,100689.63
2022-09-06T09:23:03.655Z,100685.22
2022-09-06T09:25:31.420Z,100694.91
2022-09-06T09:27:59.068Z,100685.66
2022-09-06T09:33:14.381Z,100675.94
2022-09-06T09:35:42.199Z,100678.50
2022-09-06T09:38:12.049Z,100668.41
2022-09-06T09:40:41.607Z,100666.69
2022-09-06T09:43:09.353Z,100669.25
2022-09-06T09:45:37.048Z,100661.88
2022-09-06T09:48:04.762Z,100662.09
2022-09-06T09:50:32.456Z,100655.72
2022-09-06T09:53:00.181Z,100651.97
2022-09-06T09:55:27.915Z,100645.66
2022-09-06T09:57:56.271Z,100631.97
2022-09-06T10:00:24.056Z,100636.59
2022-09-06T10:02:51.826Z,100634.72
2022-09-06T10:05:19.891Z,100620.16
2022-09-06T10:07:47.616Z,100622.91
2022-09-06T10:10:15.426Z,100615.75
2022-09-06T10:12:43.122Z,100611.94
2022-09-06T10:15:10.877Z,100613.84
2022-09-06T10:17:38.592Z,100609.44
2022-09-06T10:20:08.536Z,100609.22
2022-09-06T10:22:36.297Z,100614.50
2022-09-06T10:25:04.046Z,100613.66
2022-09-06T10:27:33.246Z,100616.41
2022-09-06T10:30:00.967Z,100616.41
2022-09-06T10:32:31.161Z,100616.41
2022-09-06T10:34:59.034Z,100616.41
2022-09-06T10:37:26.842Z,100615.34
2022-09-06T10:39:54.625Z,100604.41
2022-09-06T10:42:22.441Z,100605.25
2022-09-06T10:44:50.161Z,100609.22
2022-09-06T10:47:17.867Z,100617.06
2022-09-06T10:49:45.597Z,100616.66
2022-09-06T10:52:13.352Z,100622.97
2022-09-06T10:54:41.089Z,100625.88
2022-09-06T10:59:58.975Z,100641.94
2022-09-06T11:02:26.707Z,100640.88
2022-09-06T11:07:42.735Z,100641.06
2022-09-06T11:10:10.510Z,100648.66
2022-09-06T11:12:38.200Z,100657.69
2022-09-06T11:15:06.135Z,100662.34
2022-09-06T11:17:33.769Z,100665.91
2022-09-06T11:20:01.479Z,100665.06
2022-09-06T11:22:29.132Z,100658.72
2022-09-06T11:24:56.829Z,100663.38
2022-09-06T11:27:24.483Z,100670.53
2022-09-06T11:29:56.486Z,100668.00
2022-09-06T11:32:24.212Z,100669.69
2022-09-06T11:34:51.875Z,100665.25
2022-09-06T11:37:19.552Z,100657.88
2022-09-06T11:42:34.894Z,100654.97
2022-09-06T11:45:02.548Z,100649.50
2022-09-06T11:47:30.329Z,100634.75
2022-09-06T11:49:58.007Z,100638.13
2022-09-06T11:52:25.680Z,100639.63
2022-09-06T11:54:53.515Z,100642.19
2022-09-06T11:57:21.148Z,100644.06
2022-09-06T11:59:48.828Z,100644.53
2022-09-06T12:02:18.231Z,100644.53
2022-09-06T12:04:46.161Z,100640.91
2022-09-06T12:07:13.805Z,100637.16
2022-09-06T12:09:42.501Z,100635.69
2022-09-06T12:12:14.744Z,100636.09
2022-09-06T12:14:46.604Z,100635.25
2022-09-06T12:17:14.292Z,100628.53
2022-09-06T12:19:44.316Z,100624.16
2022-09-06T12:22:12.818Z,100624.38
2022-09-06T12:24:40.495Z,100617.19
2022-09-06T12:27:08.127Z,100622.25
2022-09-06T12:29:35.828Z,100617.66
2022-09-06T12:32:04.619Z,100621.00
2022-09-06T12:34:32.278Z,100624.38
2022-09-06T12:37:00.188Z,100627.78
2022-09-06T12:39:27.935Z,100618.50
2022-09-06T12:41:55.964Z,100614.94
2022-09-06T12:44:23.658Z,100613.25
2022-09-06T12:46:51.641Z,100605.22
2022-09-06T12:49:19.396Z,100591.53
2022-09-06T12:51:47.535Z,100587.78
2022-09-06T12:54:15.216Z,100586.06
2022-09-06T12:56:42.885Z,100580.59
2022-09-06T12:59:10.653Z,100579.56
2022-09-06T13:01:39.112Z,100576.81
2022-09-06T13:04:07.244Z,100572.84
2022-09-06T13:06:36.580Z,100568.19
2022-09-06T13:09:04.248Z,100565.66
2022-09-06T13:11:31.954Z,100558.50
2022-09-06T13:13:59.696Z,100563.56
2022-09-06T13:16:27.348Z,100559.97
2022-09-06T13:18:55.012Z,100555.09
2022-09-06T13:21:22.784Z,100550.69
2022-09-06T13:23:51.036Z,100555.28
2022-09-06T13:26:18.729Z,100553.63
2022-09-06T13:28:46.389Z,100548.97
2022-09-06T13:31:14.367Z,100553.44
2022-09-06T13:33:42.094Z,100550.69
2022-09-06T13:36:09.783Z,100542.47
2022-09-06T13:38:37.448Z,100553.22
2022-09-06T13:41:11.880Z,100551.13
2022-09-06T13:43:40.453Z,100559.53
2022-09-06T13:46:08.194Z,100562.47
2022-09-06T13:48:35.909Z,100561.41
2022-09-06T13:51:03.628Z,100562.88
2022-09-06T13:53:31.695Z,100561.19
2022-09-06T13:55:59.882Z,100559.50
2022-09-06T13:58:27.803Z,100559.50
2022-09-06T14:00:55.440Z,100564.75
2022-09-06T14:03:23.682Z,100566.47
2022-09-06T14:05:51.357Z,100570.44
2022-09-06T14:08:19.084Z,100558.44
2022-09-06T14:10:48.483Z,100567.13
2022-09-06T14:13:16.259Z,100569.19
2022-09-06T14:15:44.036Z,100563.91
2022-09-06T14:18:14.469Z,100568.38
2022-09-06T14:20:42.439Z,100565.41
2022-09-06T14:23:10.182Z,100567.97
2022-09-06T14:25:37.893Z,100575.09
2022-09-06T14:28:05.794Z,100573.22
2022-09-06T14:30:33.637Z,100565.00
2022-09-06T14:33:01.396Z,100563.31
2022-09-06T14:35:29.181Z,100565.00
2022-09-06T14:37:56.846Z,100564.16
2022-09-06T14:40:24.560Z,100563.75
2022-09-06T14:42:52.277Z,100562.72
2022-09-06T14:45:20.086Z,100558.09
2022-09-06T14:47:48.390Z,100564.41
2022-09-06T14:50:16.119Z,100563.56
2022-09-06T14:52:43.893Z,100563.75
2022-09-06T14:55:11.684Z,100545.66
2022-09-06T14:57:39.404Z,100554.91
2022-09-06T15:00:08.599Z,100543.97
2022-09-06T15:02:36.361Z,100537.44
2022-09-06T15:05:04.448Z,100539.31
2022-09-06T15:07:32.528Z,100540.16
2022-09-06T15:10:00.327Z,100540.16
2022-09-06T15:12:28.271Z,100537.84
2022-09-06T15:14:56.014Z,100537.84
2022-09-06T15:17:24.257Z,100536.13
2022-09-06T15:19:52.235Z,100537.84
2022-09-06T15:22:19.996Z,100545.22
2022-09-06T15:24:47.743Z,100536.13
2022-09-06T15:27:15.521Z,100535.09
2022-09-06T15:29:44.687Z,100530.28
2022-09-06T15:32:12.548Z,100530.47
2022-09-06T15:34:40.270Z,100522.06
2022-09-06T15:37:07.990Z,100529.41
2022-09-06T15:39:35.780Z,100522.44
2022-09-06T15:42:03.518Z,100529.81
2022-09-06T15:44:31.276Z,100522.44
2022-09-06T15:46:59.221Z,100515.28
2022-09-06T15:49:28.382Z,100509.81
2022-09-06T15:51:56.495Z,100507.06
2022-09-06T15:54:45.272Z,100497.19
2022-09-06T15:57:12.011Z,100493.81
2022-09-06T15:59:39.752Z,100494.81
2022-09-06T16:02:07.698Z,100504.09
2022-09-06T16:04:35.561Z,100510.63
2022-09-06T16:07:19.210Z,100506.84
2022-09-06T16:12:28.805Z,100490.81
2022-09-06T16:14:56.696Z,100491.91
2022-09-06T16:17:27.588Z,100485.59
2022-09-06T16:19:55.368Z,100487.50
2022-09-06T16:22:23.075Z,100487.88
2022-09-06T16:24:51.536Z,100479.47
2022-09-06T16:27:19.232Z,100474.81
2022-09-06T16:29:46.952Z,100477.78
2022-09-06T16:32:14.748Z,100481.13
2022-09-06T16:34:42.596Z,100484.75
2022-09-06T16:37:10.522Z,100473.81
2022-09-06T16:40:10.761Z,100482.19
2022-09-06T16:42:38.730Z,100484.94
2022-09-06T16:45:06.534Z,100481.38
2022-09-06T16:47:51.107Z,100475.06
2022-09-06T16:50:19.010Z,100475.06
2022-09-06T16:52:46.776Z,100476.53
2022-09-06T16:55:14.535Z,100483.03
2022-09-06T16:57:42.317Z,100480.94
2022-09-06T17:00:10.612Z,100479.28
2022-09-06T17:02:38.401Z,100474.00
2022-09-06T17:05:25.165Z,100472.09
2022-09-06T17:07:53.876Z,100478.63
2022-09-06T17:10:21.620Z,100482.38
2022-09-06T17:12:49.432Z,100479.47
2022-09-06T17:15:17.173Z,100466.84
2022-09-06T17:17:43.977Z,100469.56
2022-09-06T17:20:11.710Z,100463.88
2022-09-06T17:22:39.415Z,100455.88
2022-09-06T17:25:08.233Z,100452.94
2022-09-06T17:27:35.933Z,100453.78
2022-09-06T17:30:05.189Z,100461.13
2022-09-06T17:32:32.938Z,100458.41
2022-09-06T17:35:00.753Z,100459.25
2022-09-06T17:37:28.506Z,100461.97
2022-09-06T17:39:57.618Z,100461.38
2022-09-06T17:42:25.788Z,100462.19
2022-09-06T17:44:53.576Z,100461.38
2022-09-06T17:47:21.612Z,100460.50
2022-09-06T17:49:49.418Z,100466.63
2022-09-06T17:52:17.248Z,100462.19
2022-09-06T17:54:46.677Z,100462.38
2022-09-06T17:57:14.432Z,100459.66
2022-09-06T17:59:43.646Z,100459.66
2022-09-06T18:02:35.895Z,100465.97
2022-09-06T18:05:03.734Z,100462.63
2022-09-06T18:07:32.022Z,100460.06
2022-09-06T18:10:00.303Z,100462.63
2022-09-06T18:12:31.056Z,100466.38
2022-09-06T18:14:59.239Z,100463.47
2022-09-06T18:17:27.537Z,100463.47
2022-09-06T18:19:55.355Z,100462.63
2022-09-06T18:22:23.512Z,100459.66
2022-09-06T18:24:55.009Z,100462.38
2022-09-06T18:27:26.031Z,100457.34
2022-09-06T18:29:53.914Z,100462.63
2022-09-06T18:32:22.043Z,100468.28
2022-09-06T18:34:49.855Z,100463.00
2022-09-06T18:37:17.715Z,100457.53
2022-09-06T18:39:45.756Z,100459.22
2022-09-06T18:42:13.727Z,100466.38
2022-09-06T18:44:42.710Z,100469.34
2022-09-06T18:47:12.176Z,100472.69
2022-09-06T18:49:43.920Z,100475.66
2022-09-06T18:52:12.193Z,100474.81
2022-09-06T18:54:40.122Z,100481.97
2022-09-06T18:57:07.865Z,100483.88
2022-09-06T18:59:36.241Z,100475.66
2022-09-06T19:02:04.150Z,100480.28
2022-09-06T19:04:32.215Z,100478.41
2022-09-06T19:09:42.562Z,100477.56
2022-09-06T19:12:12.134Z,100477.56
2022-09-06T19:14:41.407Z,100495.66
2022-09-06T19:17:09.149Z,100494.41
2022-09-06T19:19:36.886Z,100492.50
2022-09-06T19:22:07.646Z,100486.38
2022-09-06T19:24:35.335Z,100480.72
2022-09-06T19:27:03.105Z,100487.44
2022-09-06T19:29:32.107Z,100483.66
2022-09-06T19:32:00.591Z,100475.25
2022-09-06T19:34:28.714Z,100475.44
2022-09-06T19:36:57.260Z,100469.97
2022-09-06T19:39:31.128Z,100465.53
2022-09-06T19:42:01.325Z,100469.34
2022-09-06T19:44:29.133Z,100463.88
2022-09-06T19:46:57.151Z,100465.53
2022-09-06T19:49:24.990Z,100459.22
2022-09-06T19:51:53.140Z,100452.91
2022-09-06T19:54:20.880Z,100454.16
2022-09-06T19:56:48.927Z,100447.84
2022-09-06T19:59:17.821Z,100445.75
2022-09-06T20:01:45.619Z,100439.44
2022-09-06T20:04:13.358Z,100439.22
2022-09-06T20:06:41.094Z,100443.00
2022-09-06T20:09:09.039Z,100436.69
2022-09-06T20:11:36.785Z,100432.88
2022-09-06T20:14:04.551Z,100433.75
2022-09-06T20:16:32.409Z,100432.06
2022-09-06T20:19:00.417Z,100433.94
2022-09-06T20:21:28.351Z,100438.38
2022-09-06T20:23:56.133Z,100434.16
2022-09-06T20:26:23.973Z,100433.53
2022-09-06T20:28:51.751Z,100443.41
2022-09-06T20:31:20.740Z,100431.44
2022-09-06T20:33:49.878Z,100435.63
2022-09-06T20:36:18.065Z,100431.03
2022-09-06T20:38:45.817Z,100435.63
2022-09-06T20:41:13.560Z,100433.94
2022-09-06T20:43:41.292Z,100430.16
2022-09-06T20:46:09.046Z,100437.53
2022-09-06T20:48:42.119Z,100431.22
2022-09-06T20:51:12.293Z,100429.31
2022-09-06T20:53:41.439Z,100423.44
2022-09-06T20:56:09.446Z,100409.97
2022-09-06T20:58:38.595Z,100406.59
2022-09-06T21:01:06.434Z,100404.06
2022-09-06T21:03:34.277Z,100412.06
2022-09-06T21:06:03.394Z,100412.88
2022-09-06T21:08:34.486Z,100412.28
2022-09-06T21:11:03.352Z,100401.53
2022-09-06T21:13:31.276Z,100405.94
2022-09-06T21:15:59.346Z,100409.53
2022-09-06T21:18:27.525Z,100407.00
2022-09-06T21:20:55.596Z,100414.38
2022-09-06T21:23:23.670Z,100406.81
2022-09-06T21:25:51.399Z,100407.84
2022-09-06T21:28:19.220Z,100406.81
2022-09-06T21:30:47.188Z,100410.38
2022-09-06T21:33:15.125Z,100406.16
2022-09-06T21:35:42.970Z,100409.72
2022-09-06T21:38:10.754Z,100412.47
2022-09-06T21:40:38.661Z,100414.38
2022-09-06T21:43:06.710Z,100417.09
2022-09-06T21:45:34.433Z,100411.81
2022-09-06T21:48:02.114Z,100412.66
2022-09-06T21:50:29.900Z,100408.06
2022-09-06T21:52:57.638Z,100407.41
2022-09-06T21:55:25.574Z,100407.19
2022-09-06T21:57:53.335Z,100399.38
2022-09-06T22:00:21.271Z,100400.22
2022-09-06T22:02:49.751Z,100392.03
2022-09-06T22:05:17.472Z,100403.84
2022-09-06T22:07:45.210Z,100401.09
2022-09-06T22:10:12.919Z,100395.63
2022-09-06T22:12:40.659Z,100398.13
2022-09-06T22:15:08.397Z,100389.75
2022-09-06T22:17:36.143Z,100397.31
2022-09-06T22:20:03.930Z,100399.19
2022-09-06T22:22:31.689Z,100394.56
2022-09-06T22:24:59.420Z,100395.63
2022-09-06T22:27:27.142Z,100387.41
2022-09-06T22:29:54.855Z,100386.34
2022-09-06T22:32:24.162Z,100391.81
2022-09-06T22:34:52.128Z,100384.69
2022-09-06T22:37:20.191Z,100384.69
2022-09-06T22:39:48.747Z,100391.00
2022-09-06T22:42:16.592Z,100397.31
2022-09-06T22:44:44.343Z,100396.47
2022-09-06T22:47:12.253Z,100390.16
2022-09-06T22:49:39.977Z,100385.72
2022-09-06T22:52:07.642Z,100390.16
2022-09-06T22:54:36.136Z,100380.22
2022-09-06T22:57:04.244Z,100388.44
2022-09-06T22:59:32.205Z,100382.97
2022-09-06T23:01:59.917Z,100370.34
2022-09-06T23:04:27.781Z,100369.28
2022-09-06T23:06:55.503Z,100364.88
2022-09-06T23:09:23.221Z,100363.16
2022-09-06T23:11:50.979Z,100369.50
2022-09-06T23:14:18.675Z,100359.41
2022-09-06T23:16:46.566Z,100362.78
2022-09-06T23:19:14.300Z,100360.03
2022-09-06T23:21:42.060Z,100365.72
2022-09-06T23:24:10.044Z,100359.41
2022-09-06T23:26:38.223Z,100361.06
2022-09-06T23:29:06.188Z,100359.41
2022-09-06T23:31:34.023Z,100356.66
2022-09-06T23:34:02.052Z,100359.41
2022-09-06T23:36:29.839Z,100353.09
2022-09-06T23:38:57.590Z,100340.44
2022-09-06T23:41:25.521Z,100348.47
2022-09-06T23:43:53.240Z,100341.91
2022-09-06T23:46:24.050Z,100335.81
2022-09-06T23:48:51.816Z,100332.22
2022-09-06T23:51:19.862Z,100329.72
2022-09-06T23:53:47.741Z,100324.44
2022-09-06T23:56:15.770Z,100322.97
2022-09-06T23:58:49.895Z,100324.63
